Time;durP1;ratioP1;P1;durP2;ratioP2;P2;SDS_P1;SDS_P2;PMS_P1;PMS_P2;Temp;Humidity;BMP_temperature;BMP_pressure;BME280_temperature;BME280_humidity;BME280_pressure;Samples;Min_cycle;Max_cycle;Signal;HPM_P1;HPM_P2
2020/12/16 00:00:12;;;;;;;217.85;49.00;;;;;;;6.51;100.00;101418.34;4730834;29;20062;-87
2020/12/16 00:03:04;;;;;;;;;;;;;;;;;;;;;
2020/12/16 00:05:41;;;;;;;185.27;46.90;;;;;;;6.47;100.00;101418.53;4756005;29;20586;-86
2020/12/16 00:08:12;;;;;;;208.95;48.75;;;;;;;6.44;100.00;101425.91;4735927;30;20069;-86
2020/12/16 00:14:39;;;;;;;;;;;;;;;;;;;;;
2020/12/16 00:17:48;;;;;;;212.10;49.83;;;;;;;6.42;100.00;101441.16;4762245;29;20043;-87
2020/12/16 00:20:31;;;;;;;187.45;48.47;;;;;;;6.41;100.00;101442.13;4766326;30;20039;-86
2020/12/16 00:23:30;;;;;;;197.75;49.08;;;;;;;6.38;100.00;101431.63;4773223;29;20053;-86
2020/12/16 00:26:18;;;;;;;189.82;49.33;;;;;;;6.39;100.00;101433.31;4773232;29;20043;-87
2020/12/16 00:29:27;;;;;;;;;;;;;;;;;;;;;
2020/12/16 00:32:25;;;;;;;199.88;47.58;;;;;;;6.35;100.00;101421.13;4759859;29;20055;-87
2020/12/16 00:35:26;;;;;;;225.65;52.35;;;;;;;6.29;100.00;101423.22;4750487;29;20192;-88
2020/12/16 00:37:58;;;;;;;190.18;46.90;;;;;;;6.31;100.00;101415.09;4768570;29;20047;-87
2020/12/16 00:40:26;;;;;;;;;;;;;;;6.31;100.00;101425.78;4747636;29;20076;-89
2020/12/16 00:43:02;;;;;;;194.65;47.83;;;;;;;6.28;100.00;101421.47;4765673;29;19922;-87
2020/12/16 00:49:02;;;;;;;;;;;;;;;;;;;;;
2020/12/16 00:51:46;;;;;;;187.18;47.28;;;;;;;6.29;100.00;101430.38;4756149;30;20040;-87
2020/12/16 00:57:58;;;;;;;178.60;47.83;;;;;;;6.25;100.00;101447.56;4733458;29;20053;-88
2020/12/16 01:00:58;;;;;;;235.10;50.63;;;;;;;6.29;100.00;101449.94;4681518;29;20055;-87
2020/12/16 01:06:55;;;;;;;198.77;47.75;;;;;;;6.36;100.00;101438.88;4658081;30;20125;-88
2020/12/16 01:10:22;;;;;;;203.07;50.97;;;;;;;6.31;100.00;101433.81;4753061;29;21583;-87
2020/12/16 01:13:10;;;;;;;206.20;49.10;;;;;;;6.30;100.00;101449.00;4772475;29;20052;-87
2020/12/16 01:15:48;;;;;;;174.27;45.45;;;;;;;6.34;100.00;101451.47;4739747;29;20836;-87
2020/12/16 01:18:23;;;;;;;194.93;51.97;;;;;;;6.34;100.00;101443.47;4739770;29;20042;-87
2020/12/16 01:20:59;;;;;;;226.60;50.30;;;;;;;6.35;100.00;101453.22;4733878;29;20111;-86
2020/12/16 01:23:55;;;;;;;240.38;53.22;;;;;;;6.36;100.00;101452.22;4726848;29;20054;-88
2020/12/16 01:26:34;;;;;;;228.57;50.88;;;;;;;6.37;100.00;101456.63;4735840;29;20058;-88
2020/12/16 01:29:30;;;;;;;203.38;48.67;;;;;;;6.34;100.00;101456.81;4745780;29;20043;-88
2020/12/16 01:32:08;;;;;;;190.02;50.95;;;;;;;6.36;100.00;101461.13;4721658;29;20047;-88
2020/12/16 01:41:48;;;;;;;222.18;52.83;;;;;;;6.41;100.00;101464.38;4678100;30;20060;-88
2020/12/16 01:44:53;;;;;;;203.68;51.75;;;;;;;6.44;100.00;101468.69;4677589;30;20090;-87
2020/12/16 01:47:27;;;;;;;228.38;52.90;;;;;;;6.40;100.00;101472.50;4764129;29;20055;-87
2020/12/16 01:50:09;;;;;;;260.90;53.15;;;;;;;6.41;100.00;101471.53;4781891;29;20102;-87
2020/12/16 01:52:48;;;;;;;239.10;55.85;;;;;;;6.37;100.00;101478.88;4766417;29;20047;-86
2020/12/16 01:55:31;;;;;;;286.27;59.22;;;;;;;6.39;100.00;101484.13;4739405;29;20047;-88
2020/12/16 01:58:07;;;;;;;230.80;55.17;;;;;;;6.38;100.00;101491.31;4761204;29;20062;-87
2020/12/16 02:00:52;;;;;;;267.17;58.83;;;;;;;6.39;100.00;101492.16;4740665;29;20193;-88
2020/12/16 02:03:55;;;;;;;263.95;54.95;;;;;;;6.37;100.00;101494.06;4744914;29;20075;-87
2020/12/16 02:06:54;;;;;;;;;;;;;;;;;;;;;
2020/12/16 02:09:40;;;;;;;254.73;56.15;;;;;;;6.35;100.00;101486.13;4775270;29;20059;-87
2020/12/16 02:12:48;;;;;;;264.45;59.35;;;;;;;6.41;100.00;101479.56;4757648;29;20051;-86
2020/12/16 02:22:15;;;;;;;242.68;54.10;;;;;;;6.45;100.00;101481.09;4677155;30;20068;-87
2020/12/16 02:32:27;;;;;;;253.25;50.25;;;;;;;6.40;100.00;101485.84;4719492;30;20059;-87
2020/12/16 02:35:21;;;;;;;219.35;51.47;;;;;;;6.45;100.00;101487.31;4744405;29;20121;-87
2020/12/16 02:38:23;;;;;;;198.00;50.70;;;;;;;6.43;100.00;101483.88;4735501;29;20109;-87
2020/12/16 02:41:50;;;;;;;;;;;;;;;;;;;;;
2020/12/16 02:51:04;;;;;;;208.40;50.22;;;;;;;6.46;100.00;101477.44;4721338;30;20049;-87
2020/12/16 02:56:47;;;;;;;194.60;48.42;;;;;;;6.43;100.00;101473.19;4662305;30;21764;-88
2020/12/16 03:02:33;;;;;;;219.45;48.60;;;;;;;6.40;100.00;101446.59;4687725;30;20068;-87
2020/12/16 03:05:07;;;;;;;204.95;48.33;;;;;;;6.40;100.00;101459.13;4689174;30;20062;-86
2020/12/16 03:07:38;;;;;;;191.52;46.47;;;;;;;6.39;100.00;101465.41;4648867;30;20118;-86
2020/12/16 03:10:19;;;;;;;181.10;48.13;;;;;;;6.38;100.00;101472.59;4716631;29;20050;-87
2020/12/16 03:19:47;;;;;;;171.90;46.17;;;;;;;6.32;100.00;101475.63;4732451;30;20060;-88
2020/12/16 03:22:39;;;;;;;175.95;43.15;;;;;;;6.29;100.00;101470.47;4679721;30;20469;-86
2020/12/16 03:25:46;;;;;;;166.95;44.38;;;;;;;6.23;100.00;101479.72;4766263;29;20039;-86
2020/12/16 03:28:50;;;;;;;157.40;42.70;;;;;;;6.21;100.00;101483.44;4719495;30;20045;-87
2020/12/16 03:31:36;;;;;;;161.88;44.95;;;;;;;6.17;100.00;101474.75;4721337;30;20131;-87
2020/12/16 03:34:45;;;;;;;;;;;;;;;;;;;;;
2020/12/16 03:37:44;;;;;;;150.30;42.80;;;;;;;6.21;100.00;101483.44;4748201;29;20054;-87
2020/12/16 03:40:48;;;;;;;;;;;;;;;6.20;100.00;101484.38;4679852;30;20149;-86
2020/12/16 03:43:29;;;;;;;165.00;40.90;;;;;;;6.17;100.00;101488.13;4688815;30;19923;-86
2020/12/16 03:46:19;;;;;;;165.32;42.33;;;;;;;6.20;100.00;101492.41;4705947;30;20067;-88
2020/12/16 03:49:07;;;;;;;143.13;41.97;;;;;;;6.22;100.00;101494.03;4680076;30;20185;-86
2020/12/16 03:55:37;;;;;;;122.35;38.80;;;;;;;6.14;100.00;101491.84;4733070;30;20055;-86
2020/12/16 03:58:42;;;;;;;143.95;42.13;;;;;;;6.11;100.00;101489.34;4707589;30;20049;-86
2020/12/16 04:01:29;;;;;;;;;;;;;;;;;;;;;
2020/12/16 04:18:11;;;;;;;164.73;45.78;;;;;;;6.06;100.00;101485.22;4605784;30;20146;-86
2020/12/16 04:20:39;;;;;;;147.57;42.33;;;;;;;6.08;100.00;101489.53;4680186;30;20041;-85
2020/12/16 04:23:28;;;;;;;148.13;42.63;;;;;;;6.13;100.00;101481.22;4668939;30;20049;-86
2020/12/16 04:26:15;;;;;;;142.55;43.22;;;;;;;6.08;100.00;101472.63;4724642;29;20055;-86
2020/12/16 04:29:20;;;;;;;138.32;41.03;;;;;;;6.11;100.00;101472.44;4756846;29;20050;-90
2020/12/16 04:32:04;;;;;;;155.10;41.97;;;;;;;6.11;100.00;101477.78;4720797;29;20058;-88
2020/12/16 04:35:36;;;;;;;;;;;;;;;;;;;;;
2020/12/16 04:38:29;;;;;;;159.40;44.47;;;;;;;6.08;100.00;101477.97;4762639;30;20069;-85
2020/12/16 04:41:00;;;;;;;150.30;41.45;;;;;;;6.10;100.00;101481.41;4750734;29;20043;-87
2020/12/16 04:44:05;;;;;;;133.20;37.10;;;;;;;6.06;100.00;101482.56;4718677;30;20127;-88
2020/12/16 04:47:27;;;;;;;139.85;36.40;;;;;;;6.04;100.00;101479.13;4680645;30;20045;-86
2020/12/16 04:50:39;;;;;;;143.70;37.20;;;;;;;6.01;100.00;101490.84;4729098;30;20102;-88
2020/12/16 04:56:31;;;;;;;131.15;36.10;;;;;;;6.02;100.00;101483.69;4713293;30;20041;-86
2020/12/16 05:02:30;;;;;;;136.60;38.50;;;;;;;6.01;100.00;101484.63;4701569;30;20051;-86
2020/12/16 05:05:38;;;;;;;;;;;;;;;;;;;;;
2020/12/16 05:14:43;;;;;;;;;;;;;;;;;;;;;
2020/12/16 05:17:52;;;;;;;151.20;43.40;;;;;;;6.00;100.00;101490.94;4698478;30;20478;-88
2020/12/16 05:24:40;;;;;;;143.68;40.67;;;;;;;5.96;100.00;101480.41;4588817;30;20054;-86
2020/12/16 05:27:52;;;;;;;;;;;;;;;;;;;;;
2020/12/16 05:30:36;;;;;;;144.23;41.28;;;;;;;6.01;100.00;101484.63;4621522;30;20053;-86
2020/12/16 05:33:56;;;;;;;131.73;40.05;;;;;;;6.05;100.00;101483.50;4688577;29;20169;-85
2020/12/16 05:41:12;;;;;;;;;;;;;;;;;;;;;
2020/12/16 05:44:02;;;;;;;122.77;39.13;;;;;;;6.04;100.00;101493.34;4711447;29;20668;-86
2020/12/16 05:46:47;;;;;;;116.53;39.55;;;;;;;6.01;100.00;101488.19;4694448;30;20056;-86
2020/12/16 05:57:37;;;;;;;114.25;40.58;;;;;;;5.99;100.00;101497.22;4647259;30;20041;-87
2020/12/16 06:00:22;;;;;;;109.57;39.20;;;;;;;5.95;100.00;101494.69;4622053;30;20053;-88
2020/12/16 06:02:54;;;;;;;105.80;37.72;;;;;;;5.99;100.00;101499.91;4636332;30;20079;-87
2020/12/16 06:06:05;;;;;;;103.80;38.78;;;;;;;5.95;100.00;101505.38;4657923;30;20063;-87
2020/12/16 06:13:18;;;;;;;;;;;;;;;;;;;;;
2020/12/16 06:16:29;;;;;;;;;;;;;;;;;;;;;
2020/12/16 06:19:51;;;;;;;86.93;36.05;;;;;;;5.95;100.00;101509.88;4619425;30;20042;-86
2020/12/16 06:23:06;;;;;;;;;;;;;;;;;;;;;
2020/12/16 06:25:41;;;;;;;89.78;35.55;;;;;;;5.93;100.00;101520.66;4668129;30;20492;-86
2020/12/16 06:28:10;;;;;;;94.03;37.55;;;;;;;5.85;100.00;101519.38;4700086;30;20053;-86
2020/12/16 06:31:01;;;;;;;91.60;36.60;;;;;;;5.86;100.00;101521.97;4760815;30;20438;-86
2020/12/16 06:33:45;;;;;;;84.43;36.95;;;;;;;5.84;100.00;101523.00;4747822;29;20590;-87
2020/12/16 06:40:09;;;;;;;85.10;34.42;;;;;;;5.77;100.00;101512.69;4746305;29;20050;-86
2020/12/16 06:43:10;;;;;;;74.00;32.58;;;;;;;5.73;100.00;101504.94;4711431;29;20063;-86
2020/12/16 06:46:10;;;;;;;;;;;;;;;;;;;;;
2020/12/16 06:48:51;;;;;;;77.25;31.48;;;;;;;5.65;100.00;101507.19;4763720;29;20330;-86
2020/12/16 06:51:33;;;;;;;;;;;;;;;;;;;;;
2020/12/16 06:54:41;;;;;;;;;;;;;;;;;;;;;
2020/12/16 06:57:45;;;;;;;69.47;31.95;;;;;;;5.58;100.00;101506.66;4758765;29;20042;-88
2020/12/16 07:00:42;;;;;;;80.47;31.63;;;;;;;5.48;100.00;101501.00;4746812;29;20897;-86
2020/12/16 07:03:37;;;;;;;82.05;31.55;;;;;;;5.48;100.00;101503.66;4729916;29;20050;-86
2020/12/16 07:08:39;;;;;;;72.40;31.05;;;;;;;5.37;100.00;101508.75;2925230;27;20102;-85
2020/12/16 07:12:10;;;;;;;74.95;31.45;;;;;;;5.35;100.00;101505.31;4781176;29;20412;-85
2020/12/16 07:14:50;;;;;;;75.35;30.75;;;;;;;5.26;100.00;101499.53;4794653;29;20140;-86
2020/12/16 07:17:28;;;;;;;73.88;31.67;;;;;;;5.22;100.00;101492.63;4805881;29;20504;-85
2020/12/16 07:20:04;;;;;;;81.25;30.98;;;;;;;5.17;100.00;101497.38;4813286;29;20040;-85
2020/12/16 07:22:36;;;;;;;72.43;31.48;;;;;;;5.14;100.00;101496.69;4822262;29;20056;-85
2020/12/16 07:25:14;;;;;;;72.00;31.85;;;;;;;5.05;100.00;101493.59;4797140;29;20512;-85
2020/12/16 07:30:57;;;;;;;70.22;29.80;;;;;;;4.95;100.00;101492.38;4805314;29;20045;-85
2020/12/16 07:33:51;;;;;;;84.85;29.00;;;;;;;4.90;100.00;101494.41;4769351;29;20064;-86
2020/12/16 07:36:22;;;;;;;71.72;31.27;;;;;;;4.91;100.00;101505.00;4811567;29;20426;-86
2020/12/16 07:39:18;;;;;;;85.38;31.27;;;;;;;4.87;100.00;101500.81;4812082;29;20129;-86
2020/12/16 07:42:10;;;;;;;69.13;28.75;;;;;;;4.88;100.00;101501.66;4795346;29;20062;-88
2020/12/16 07:44:45;;;;;;;77.32;30.10;;;;;;;4.91;100.00;101499.66;4771410;29;20042;-86
2020/12/16 07:47:21;;;;;;;83.65;33.50;;;;;;;4.88;100.00;101507.84;4807307;29;20907;-86
2020/12/16 07:53:57;;;;;;;89.18;33.35;;;;;;;4.74;100.00;101499.72;4812987;29;20054;-87
2020/12/16 07:57:00;;;;;;;84.65;31.90;;;;;;;4.79;100.00;101504.81;4759114;29;20043;-87
2020/12/16 08:00:04;;;;;;;;;;;;;;;;;;;;;
2020/12/16 08:02:46;;;;;;;;;;;;;;;;;;;;;
2020/12/16 08:05:39;;;;;;;97.97;35.88;;;;;;;4.72;100.00;101493.63;4778796;29;20045;-86
2020/12/16 08:11:35;;;;;;;98.18;36.13;;;;;;;4.71;100.00;101500.75;4771702;29;20077;-86
2020/12/16 08:14:28;;;;;;;90.63;34.13;;;;;;;4.76;100.00;101508.50;4796609;29;20146;-86
2020/12/16 08:18:01;;;;;;;89.35;34.55;;;;;;;4.76;100.00;101507.66;4724388;30;20043;-87
2020/12/16 08:20:40;;;;;;;;;;;;;;;;;;;;;
2020/12/16 08:27:43;;;;;;;86.93;32.65;;;;;;;4.71;100.00;101505.22;4753790;29;20128;-87
2020/12/16 08:30:38;;;;;;;91.32;33.03;;;;;;;4.79;100.00;101505.69;4718450;29;20044;-87
2020/12/16 08:34:41;;;;;;;92.47;32.88;;;;;;;4.78;100.00;101501.28;4743309;29;20462;-86
2020/12/16 08:36:42;;;;;;;88.53;32.97;;;;;;;4.77;100.00;101498.69;4751162;29;20058;-86
2020/12/16 08:40:14;;;;;;;84.80;34.17;;;;;;;4.76;100.00;101503.19;4712839;30;20453;-86
2020/12/16 08:43:22;;;;;;;85.63;32.30;;;;;;;4.84;100.00;101506.28;4687606;30;20305;-86
2020/12/16 08:47:08;;;;;;;;;;;;;;;;;;;;;
2020/12/16 08:49:31;;;;;;;66.03;27.65;;;;;;;4.94;100.00;101505.81;4563358;31;20065;-86
2020/12/16 08:52:38;;;;;;;76.88;30.23;;;;;;;5.03;100.00;101511.47;4552176;30;20064;-85
2020/12/16 08:59:10;;;;;;;69.95;26.02;;;;;;;4.98;100.00;101513.53;4566066;30;20079;-86
2020/12/16 09:02:06;;;;;;;66.15;26.17;;;;;;;4.99;100.00;101509.06;4714349;30;20079;-86
2020/12/16 09:08:11;;;;;;;59.10;24.15;;;;;;;5.24;100.00;101514.78;4788708;29;20063;-86
2020/12/16 09:11:49;;;;;;;50.15;22.92;;;;;;;5.30;100.00;101520.72;4800525;29;20057;-86
2020/12/16 09:18:56;;;;;;;;;;;;;;;;;;;;;
2020/12/16 09:22:20;;;;;;;41.90;20.35;;;;;;;5.40;100.00;101519.25;4765252;29;20114;-85
2020/12/16 09:25:30;;;;;;;39.80;18.98;;;;;;;5.61;100.00;101523.38;4765627;29;20047;-84
2020/12/16 09:28:37;;;;;;;38.33;19.58;;;;;;;5.78;100.00;101532.22;4809981;29;20046;-86
2020/12/16 09:31:33;;;;;;;36.15;17.83;;;;;;;5.86;100.00;101531.78;4723881;29;20055;-85
2020/12/16 09:34:22;;;;;;;32.03;17.05;;;;;;;5.99;100.00;101531.97;4761109;29;20056;-85
2020/12/16 09:37:15;;;;;;;27.23;15.32;;;;;;;6.19;100.00;101531.66;4734520;29;20055;-87
2020/12/16 09:39:49;;;;;;;23.42;14.25;;;;;;;6.29;100.00;101538.16;4777442;29;20115;-86
2020/12/16 09:42:50;;;;;;;22.40;14.15;;;;;;;6.35;100.00;101536.09;4797532;29;20055;-88
2020/12/16 09:49:40;;;;;;;19.92;12.00;;;;;;;6.60;98.82;101543.50;4725474;29;20594;-86
2020/12/16 09:52:46;;;;;;;14.55;10.27;;;;;;;6.68;98.16;101543.00;4722290;29;20057;-87
2020/12/16 09:58:37;;;;;;;23.40;13.88;;;;;;;6.88;96.96;101549.81;4787058;29;20115;-86
2020/12/16 10:01:42;;;;;;;23.17;11.52;;;;;;;6.82;96.58;101551.06;4778131;29;20056;-86
2020/12/16 10:04:36;;;;;;;29.55;15.75;;;;;;;6.91;96.58;101553.16;4717989;29;20047;-85
2020/12/16 10:07:55;;;;;;;24.90;12.68;;;;;;;7.00;95.92;101547.22;4714918;30;20044;-83
2020/12/16 10:10:42;;;;;;;20.02;12.75;;;;;;;7.00;95.43;101535.66;4660530;30;20157;-86
2020/12/16 10:13:12;;;;;;;26.98;13.20;;;;;;;7.03;95.70;101527.44;4686894;30;20050;-84
2020/12/16 10:16:40;;;;;;;16.65;11.00;;;;;;;7.08;95.34;101522.66;4711056;30;20090;-86
2020/12/16 10:19:34;;;;;;;;;;;;;;;;;;;;;
2020/12/16 10:22:50;;;;;;;;;;;;;;;;;;;;;
2020/12/16 10:28:28;;;;;;;14.00;9.88;;;;;;;7.25;94.69;101505.50;4793925;29;20533;-86
2020/12/16 10:31:49;;;;;;;15.65;10.00;;;;;;;7.30;94.04;101494.50;4806619;29;20054;-86
2020/12/16 10:35:14;;;;;;;14.40;9.73;;;;;;;7.33;93.41;101507.69;4736701;29;20523;-86
2020/12/16 10:37:59;;;;;;;14.20;9.40;;;;;;;7.37;94.00;101507.38;4768953;29;20413;-84
2020/12/16 10:41:09;;;;;;;16.38;10.45;;;;;;;7.49;94.02;101508.44;4797311;29;20058;-87
2020/12/16 10:43:47;;;;;;;15.40;10.98;;;;;;;7.60;94.02;101513.09;4799101;29;20050;-85
2020/12/16 10:46:32;;;;;;;;;;;;;;;;;;;;;
2020/12/16 10:49:01;;;;;;;25.27;12.80;;;;;;;7.52;94.04;101502.88;4749155;30;20046;-86
2020/12/16 10:52:05;;;;;;;23.67;13.20;;;;;;;7.57;94.01;101507.03;4754027;30;20050;-85
2020/12/16 10:54:51;;;;;;;19.95;12.25;;;;;;;7.64;94.22;101498.53;4748569;29;20086;-86
2020/12/16 11:01:08;;;;;;;21.75;11.52;;;;;;;7.93;93.24;101492.19;4711526;30;20131;-86
2020/12/16 11:04:00;;;;;;;15.65;10.15;;;;;;;7.84;93.11;101486.47;4739647;29;20073;-85
2020/12/16 11:07:05;;;;;;;;;;;;;;;;;;;;;
2020/12/16 11:10:25;;;;;;;14.95;8.75;;;;;;;7.98;92.63;101482.00;4767650;29;20051;-86
2020/12/16 11:16:54;;;;;;;;;;;;;;;;;;;;;
2020/12/16 11:20:03;;;;;;;13.85;8.98;;;;;;;8.01;93.06;101477.28;4779474;29;20052;-85
2020/12/16 11:26:29;;;;;;;;;;;;;;;;;;;;;
2020/12/16 11:29:31;;;;;;;;;;;;;;;;;;;;;
2020/12/16 11:32:56;;;;;;;;;;;;;;;;;;;;;
2020/12/16 11:36:36;;;;;;;;;;;;;;;;;;;;;
2020/12/16 11:39:53;;;;;;;;;;;;;;;;;;;;;
2020/12/16 11:47:01;;;;;;;;;;;;;;;;;;;;;
2020/12/16 11:49:46;;;;;;;14.70;9.50;;;;;;;8.57;91.36;101441.31;4715132;30;20718;-86
2020/12/16 11:52:48;;;;;;;;;;;;;;;;;;;;;
2020/12/16 11:59:17;;;;;;;15.90;9.80;;;;;;;8.73;90.92;101433.88;4683842;30;20531;-87
2020/12/16 12:02:14;;;;;;;;;;;;;;;;;;;;;
2020/12/16 12:05:02;;;;;;;21.92;11.35;;;;;;;8.85;89.99;101426.78;4761727;29;20046;-86
2020/12/16 12:08:02;;;;;;;21.70;11.32;;;;;;;8.87;89.79;101429.34;4759618;29;20199;-87
2020/12/16 12:10:46;;;;;;;22.33;11.25;;;;;;;8.96;89.17;101427.81;4747844;29;21048;-86
2020/12/16 12:13:48;;;;;;;20.27;11.13;;;;;;;8.94;89.74;101414.50;4734259;29;20048;-86
2020/12/16 12:16:49;;;;;;;14.88;10.32;;;;;;;8.95;89.31;101418.88;4772956;29;20039;-85
2020/12/16 12:19:42;;;;;;;;;;;;;;;;;;;;;
2020/12/16 12:22:32;;;;;;;91.60;18.75;;;;;;;9.08;89.05;101409.00;4766456;29;20782;-88
2020/12/16 12:25:06;;;;;;;;;;;;;;;9.11;88.85;101414.13;4807512;29;20068;-85
2020/12/16 12:28:13;;;;;;;66.65;14.75;;;;;;;9.06;88.81;101402.88;4795153;29;20008;-86
2020/12/16 12:30:39;;;;;;;1999.90;316.45;;;;;;;9.04;89.04;101399.44;4770549;29;20039;-85
2020/12/16 12:33:11;;;;;;;64.68;13.07;;;;;;;9.10;88.53;101399.00;4766891;29;20083;-87
2020/12/16 12:36:11;;;;;;;21.55;9.10;;;;;;;9.11;88.57;101400.72;4795504;29;20050;-85
2020/12/16 12:38:45;;;;;;;19.63;10.55;;;;;;;9.10;88.39;101409.72;4779078;29;20175;-86
2020/12/16 12:44:51;;;;;;;23.30;10.15;;;;;;;9.22;88.41;101418.72;4772865;29;20051;-86
2020/12/16 14:03:13;;;;;;;11.63;8.10;;;;;;;8.36;91.14;101361.38;2720523;27;20484;-86
2020/12/16 14:37:13;;;;;;;13.27;9.13;;;;;;;8.00;92.96;101354.94;2587373;24;20054;-86
2020/12/16 14:40:12;;;;;;;14.90;10.13;;;;;;;7.98;93.31;101356.88;4777269;29;20050;-85
2020/12/16 14:46:06;;;;;;;16.35;11.07;;;;;;;7.94;93.38;101360.72;4777416;29;20053;-85
2020/12/16 14:55:34;;;;;;;16.75;11.73;;;;;;;7.80;94.05;101353.66;4783059;29;20082;-84
2020/12/16 14:58:45;;;;;;;19.33;11.13;;;;;;;7.72;94.18;101346.13;4761464;29;20046;-85
2020/12/16 15:04:11;;;;;;;18.80;11.65;;;;;;;7.64;94.80;101348.50;4793297;29;20142;-86
2020/12/16 15:06:55;;;;;;;21.10;13.75;;;;;;;7.63;94.28;101349.44;4806593;29;20046;-86
2020/12/16 15:19:58;;;;;;;24.80;13.95;;;;;;;7.47;95.12;101360.34;4671480;30;20147;-85
2020/12/16 15:29:47;;;;;;;;;;;;;;;;;;;;;
2020/12/16 15:32:35;;;;;;;26.23;16.05;;;;;;;7.28;96.84;101355.38;4810798;29;20045;-86
2020/12/16 15:35:14;;;;;;;28.38;16.70;;;;;;;7.29;96.18;101354.41;4800000;29;20128;-86
2020/12/16 15:38:02;;;;;;;;;;;;;;;;;;;;;
2020/12/16 15:40:47;;;;;;;;;;;;;;;;;;;;;
2020/12/16 15:43:22;;;;;;;30.85;18.05;;;;;;;7.27;97.32;101342.09;4743331;29;20549;-86
2020/12/16 15:45:50;;;;;;;29.35;16.60;;;;;;;7.26;97.22;101343.91;4766561;29;20577;-85
2020/12/16 15:48:22;;;;;;;28.00;16.73;;;;;;;7.21;96.86;101346.03;4793824;29;20050;-87
2020/12/16 15:51:19;;;;;;;29.95;17.33;;;;;;;7.20;97.41;101355.03;4802108;29;20401;-86
2020/12/16 15:53:56;;;;;;;25.25;15.90;;;;;;;7.21;97.35;101346.03;4795453;29;20042;-85
2020/12/16 15:56:51;;;;;;;29.58;16.00;;;;;;;7.12;97.43;101346.66;4780269;29;20142;-85
2020/12/16 15:59:31;;;;;;;27.58;15.88;;;;;;;7.13;97.81;101353.72;4810586;29;20156;-85
2020/12/16 16:01:56;;;;;;;30.95;17.15;;;;;;;7.16;97.94;101348.16;4807781;29;20057;-85
2020/12/16 16:07:45;;;;;;;32.45;17.38;;;;;;;7.17;97.54;101352.56;4779496;29;20179;-86
2020/12/16 16:10:49;;;;;;;;;;;;;;;;;;;;;
2020/12/16 16:13:52;;;;;;;32.05;17.25;;;;;;;7.11;98.39;101347.59;4749715;29;20039;-85
2020/12/16 16:17:28;;;;;;;;;;;;;;;;;;;;;
2020/12/16 16:20:03;;;;;;;35.17;19.15;;;;;;;7.12;97.91;101347.50;4760155;29;20047;-85
2020/12/16 16:23:14;;;;;;;;;;;;;;;;;;;;;
2020/12/16 16:26:31;;;;;;;;;;;;;;;;;;;;;
2020/12/16 16:29:12;;;;;;;;;;;;;;;;;;;;;
2020/12/16 16:31:53;;;;;;;33.50;18.15;;;;;;;7.29;98.96;101334.81;4749143;29;20063;-87
2020/12/16 16:35:02;;;;;;;31.08;18.05;;;;;;;7.41;98.77;101330.47;4774598;29;20048;-88
2020/12/16 16:37:43;;;;;;;32.22;19.00;;;;;;;7.34;98.60;101330.00;4774181;29;20051;-85
2020/12/16 16:40:56;;;;;;;38.13;18.65;;;;;;;7.42;98.79;101334.84;4769507;29;20119;-86
2020/12/16 16:43:32;;;;;;;32.88;18.33;;;;;;;7.48;98.74;101337.09;4787937;29;20103;-87
2020/12/16 16:46:02;;;;;;;33.53;17.88;;;;;;;7.55;98.83;101338.38;4810902;29;20065;-86
2020/12/16 16:48:28;;;;;;;31.58;18.38;;;;;;;7.62;98.68;101338.84;4791892;29;20478;-86
2020/12/16 16:50:57;;;;;;;39.30;20.27;;;;;;;7.65;98.91;101341.31;4784937;29;20057;-87
2020/12/16 16:53:40;;;;;;;31.77;17.53;;;;;;;7.65;98.51;101334.13;4789068;29;20142;-87
2020/12/16 16:56:49;;;;;;;29.42;17.88;;;;;;;7.67;98.11;101334.00;4802466;29;20043;-85
2020/12/16 16:59:23;;;;;;;32.15;18.00;;;;;;;7.65;98.63;101328.75;4801681;29;20062;-85
2020/12/16 17:01:56;;;;;;;31.58;18.63;;;;;;;7.68;98.58;101317.81;4786296;29;20053;-84
2020/12/16 17:04:30;;;;;;;30.20;17.55;;;;;;;7.66;98.38;101329.63;4761682;29;21162;-85
2020/12/16 17:07:07;;;;;;;30.75;17.40;;;;;;;7.71;98.46;101317.66;4781442;29;20038;-86
2020/12/16 17:09:57;;;;;;;32.20;17.83;;;;;;;7.74;98.10;101323.75;4750303;29;20047;-84
2020/12/16 17:12:33;;;;;;;31.73;18.83;;;;;;;7.80;98.55;101321.50;4783343;29;20335;-84
2020/12/16 17:15:10;;;;;;;27.38;16.70;;;;;;;7.80;97.95;101320.63;4796002;29;20571;-86
2020/12/16 17:17:45;;;;;;;29.20;17.70;;;;;;;7.77;98.08;101326.22;4786667;29;20045;-86
2020/12/16 17:20:21;;;;;;;31.13;17.42;;;;;;;7.75;98.62;101317.44;4794339;29;20057;-85
2020/12/16 17:22:50;;;;;;;32.17;17.98;;;;;;;7.83;98.51;101305.22;4775412;29;20115;-84
2020/12/16 17:25:34;;;;;;;32.60;18.73;;;;;;;7.82;98.58;101308.00;4798560;29;20102;-85
2020/12/16 17:28:05;;;;;;;31.98;17.33;;;;;;;7.79;98.67;101293.00;4807397;29;20585;-85
2020/12/16 17:30:34;;;;;;;28.88;15.80;;;;;;;7.78;98.21;101295.78;4786478;29;20129;-85
2020/12/16 17:33:16;;;;;;;27.95;17.05;;;;;;;7.76;98.23;101295.00;4807248;29;20053;-86
2020/12/16 17:35:45;;;;;;;29.15;17.25;;;;;;;7.78;98.13;101293.94;4808518;29;20106;-85
2020/12/16 17:38:29;;;;;;;;;;;;;;;;;;;;;
2020/12/16 17:41:12;;;;;;;28.60;15.95;;;;;;;7.77;98.18;101297.56;4803331;29;20046;-85
2020/12/16 17:43:53;;;;;;;27.77;15.98;;;;;;;7.69;98.43;101291.91;4752930;29;20059;-86
2020/12/16 17:46:42;;;;;;;33.45;17.67;;;;;;;7.60;98.57;101287.19;4797690;29;20046;-88
2020/12/16 17:49:19;;;;;;;30.48;16.85;;;;;;;7.52;98.48;101283.22;4795285;29;20095;-86
2020/12/16 17:51:58;;;;;;;27.85;17.05;;;;;;;7.52;98.32;101279.69;4807472;29;20042;-87
2020/12/16 17:54:35;;;;;;;36.78;18.17;;;;;;;7.40;98.38;101267.13;4774599;29;20445;-86
2020/12/16 17:57:14;;;;;;;31.13;16.52;;;;;;;7.33;98.86;101270.25;4767065;29;20059;-86
2020/12/16 17:59:44;;;;;;;34.88;18.27;;;;;;;7.27;98.51;101281.34;4770965;29;20197;-86
2020/12/16 18:02:12;;;;;;;35.45;17.63;;;;;;;7.29;99.34;101274.09;4775155;29;20497;-86
2020/12/16 18:04:49;;;;;;;32.10;17.98;;;;;;;7.23;98.95;101279.88;4778206;29;20112;-87
2020/12/16 18:07:24;;;;;;;34.70;18.27;;;;;;;7.28;99.20;101282.22;4779724;29;20042;-86
2020/12/16 18:10:06;;;;;;;32.45;17.98;;;;;;;7.24;99.35;101284.25;4802694;29;20393;-86
2020/12/16 18:12:46;;;;;;;31.00;17.60;;;;;;;7.19;99.43;101283.72;4809113;29;20061;-87
2020/12/16 18:15:17;;;;;;;35.15;17.45;;;;;;;7.16;99.07;101263.34;4798912;29;20461;-86
2020/12/16 18:18:06;;;;;;;32.25;16.92;;;;;;;7.15;99.28;101269.66;4774210;29;20484;-86
2020/12/16 18:20:43;;;;;;;36.45;19.15;;;;;;;7.21;100.00;101275.56;4787490;29;20038;-86
2020/12/16 18:23:17;;;;;;;30.70;17.17;;;;;;;7.24;99.40;101280.72;4777476;29;20153;-85
2020/12/16 18:25:49;;;;;;;32.22;17.83;;;;;;;7.31;99.82;101277.50;4803576;29;20038;-85
2020/12/16 18:28:15;;;;;;;34.97;18.25;;;;;;;7.27;99.70;101275.16;4792891;29;20536;-86
2020/12/16 18:30:49;;;;;;;33.15;18.00;;;;;;;7.23;99.46;101263.81;4796909;29;20127;-85
2020/12/16 18:33:41;;;;;;;34.88;19.33;;;;;;;7.21;99.39;101260.34;4788191;29;20056;-86
2020/12/16 18:36:14;;;;;;;33.50;18.08;;;;;;;7.40;99.58;101259.09;4778393;29;20102;-83
2020/12/16 18:38:58;;;;;;;39.15;18.70;;;;;;;7.46;99.63;101264.03;4772753;29;20137;-83
2020/12/16 18:41:24;;;;;;;30.80;17.15;;;;;;;7.44;99.84;101249.91;4782136;29;20146;-83
2020/12/16 18:44:04;;;;;;;33.60;17.65;;;;;;;7.50;99.30;101252.16;4782765;29;20478;-85
2020/12/16 18:46:31;;;;;;;29.70;16.25;;;;;;;7.47;100.00;101255.03;4786442;29;20085;-87
2020/12/16 18:49:18;;;;;;;;;;;;;;;;;;;;;
2020/12/16 18:51:59;;;;;;;26.73;15.82;;;;;;;7.52;99.50;101255.56;4786681;29;20610;-86
2020/12/16 18:58:31;;;;;;;25.27;15.45;;;;;;;7.59;99.13;101238.09;4783720;29;20046;-88
2020/12/16 19:01:33;;;;;;;27.42;16.35;;;;;;;7.59;99.38;101237.25;4789899;29;20058;-86
2020/12/16 19:04:04;;;;;;;22.75;14.90;;;;;;;7.58;98.72;101227.50;4781583;29;20522;-88
2020/12/16 19:09:53;;;;;;;26.83;14.25;;;;;;;7.67;98.54;101232.19;4782862;29;20057;-85
2020/12/16 19:13:04;;;;;;;26.50;15.90;;;;;;;7.70;98.73;101218.63;4773416;29;20493;-87
2020/12/16 19:15:57;;;;;;;23.65;14.00;;;;;;;7.70;98.80;101223.97;4768944;29;20051;-86
2020/12/16 19:25:19;;;;;;;19.15;12.82;;;;;;;7.90;97.51;101219.84;4703354;30;20611;-86
2020/12/16 19:27:48;;;;;;;19.15;12.20;;;;;;;7.91;97.48;101215.38;4782927;29;20053;-88